Aérodrome :
LOGIN :

S'inscrire | Disclaimer

   EN    FR    IT 

 










Légende :    VFR   VFR Marginal   IFR   IFR Intensif   IFR Très Intensif
Visi : 
Plafond : 
>= 8 km
>= 3000ft
5 à 8 km
1000 à 3000 ft
1500m à 5 km
500 à 1000 ft
800 à 1500m
200 à 500 ft
< 800m
< 200 ft
Symboles :   Orages  Brouillard  Fortes neiges  Fortes précipitations  Vent > 20 kt
SIGMETs :   Divers  Orages  Givrage  Turbulence  Onde Orograph.  Cendres Volcan.







- Altitude de l'aérodrome : 100 ft
- Code IATA : DCI


LIED - Decimomannu Air Base

METAR N/A
TAF TAF LIED
Valide du 21 à 09h jusqu'au 21 à 18h UTC


210800Z 2109/2118 33015KT 9999 FEW020 SCT040
TEMPO 2109/2114 04015G27KT 3000 TSRA SCT025CB
Pas de NOTAMs connus pour ce terrain.
1 SIGMET publié pour la FIR Roma (LIRR) :
 
Orages noyés dans la masse
LIRR SIGMET 6 VALID 211200/211400 LIIB
LIRR ROMA FIR EMBD TS FCST WI N4042 E01007 - N3959 E00928 - N3839 E00951 - N3804 E01247 - N3904 E01447 - N3955 E01533 - N4058 E01404 - N4110 E01141 - N4042 E01007 TOP FL400 STNR NC=



MET'MAP, la Météo Aéronautique d'un coup d'oeil ! - Copyright ORBIFLY Décembre 2007 - Disclaimer

ORBIFLY MET'MAP TEAM :

Programmation & Développement : Alexandra Zaïnal
Conception & Développement : Baudouin d'Aumeries
Co-Programmation & Développement : Marc-Olivier Méhu
Soutien technique & logistique : Manuel Goepfert

Contact : metmap@orbifly.com




SOURCES & CREDITS :

   NOAA